sensor_id;sensor_type;location;lat;lon;timestamp;P1;durP1;ratioP1;P2;durP2;ratioP2
10100;SDS011;5090;51.258;4.436;2023-02-18T00:01:24;22.87;;;13.80;;
10100;SDS011;5090;51.258;4.436;2023-02-18T00:03:52;22.50;;;14.03;;
10100;SDS011;5090;51.258;4.436;2023-02-18T00:06:23;24.33;;;15.33;;
10100;SDS011;5090;51.258;4.436;2023-02-18T00:08:50;25.50;;;15.63;;
10100;SDS011;5090;51.258;4.436;2023-02-18T00:11:18;20.83;;;14.53;;
10100;SDS011;5090;51.258;4.436;2023-02-18T00:13:48;23.63;;;14.97;;
10100;SDS011;5090;51.258;4.436;2023-02-18T00:16:16;20.27;;;13.77;;
10100;SDS011;5090;51.258;4.436;2023-02-18T00:18:44;23.47;;;15.40;;
10100;SDS011;5090;51.258;4.436;2023-02-18T00:21:12;22.63;;;15.43;;
10100;SDS011;5090;51.258;4.436;2023-02-18T00:23:41;26.00;;;14.90;;
10100;SDS011;5090;51.258;4.436;2023-02-18T00:26:14;25.43;;;15.93;;
10100;SDS011;5090;51.258;4.436;2023-02-18T00:28:42;24.97;;;15.63;;
10100;SDS011;5090;51.258;4.436;2023-02-18T00:31:13;24.53;;;15.20;;
10100;SDS011;5090;51.258;4.436;2023-02-18T00:33:41;27.70;;;15.87;;
10100;SDS011;5090;51.258;4.436;2023-02-18T00:36:12;24.07;;;15.73;;
10100;SDS011;5090;51.258;4.436;2023-02-18T00:38:44;29.77;;;16.60;;
10100;SDS011;5090;51.258;4.436;2023-02-18T00:41:12;27.13;;;16.70;;
10100;SDS011;5090;51.258;4.436;2023-02-18T00:43:40;28.57;;;17.07;;
10100;SDS011;5090;51.258;4.436;2023-02-18T00:46:17;25.07;;;16.70;;
10100;SDS011;5090;51.258;4.436;2023-02-18T00:48:45;27.53;;;17.27;;
10100;SDS011;5090;51.258;4.436;2023-02-18T00:51:13;30.50;;;17.13;;
10100;SDS011;5090;51.258;4.436;2023-02-18T00:53:42;29.43;;;16.97;;
10100;SDS011;5090;51.258;4.436;2023-02-18T00:56:10;28.03;;;16.30;;
10100;SDS011;5090;51.258;4.436;2023-02-18T00:58:42;25.67;;;15.87;;
10100;SDS011;5090;51.258;4.436;2023-02-18T01:01:10;26.70;;;16.73;;
10100;SDS011;5090;51.258;4.436;2023-02-18T01:03:39;26.47;;;14.93;;
10100;SDS011;5090;51.258;4.436;2023-02-18T01:06:07;24.63;;;15.03;;
10100;SDS011;5090;51.258;4.436;2023-02-18T01:08:36;21.80;;;14.37;;
10100;SDS011;5090;51.258;4.436;2023-02-18T01:11:04;22.97;;;14.30;;
10100;SDS011;5090;51.258;4.436;2023-02-18T01:13:32;21.93;;;13.77;;
10100;SDS011;5090;51.258;4.436;2023-02-18T01:16:02;23.23;;;13.87;;
10100;SDS011;5090;51.258;4.436;2023-02-18T01:18:30;22.17;;;14.07;;
10100;SDS011;5090;51.258;4.436;2023-02-18T01:20:58;20.87;;;13.37;;
10100;SDS011;5090;51.258;4.436;2023-02-18T01:23:26;20.73;;;13.30;;
10100;SDS011;5090;51.258;4.436;2023-02-18T01:25:56;18.70;;;12.27;;
10100;SDS011;5090;51.258;4.436;2023-02-18T01:28:23;19.63;;;12.87;;
10100;SDS011;5090;51.258;4.436;2023-02-18T01:30:51;20.50;;;13.53;;
10100;SDS011;5090;51.258;4.436;2023-02-18T01:33:19;19.23;;;12.63;;
10100;SDS011;5090;51.258;4.436;2023-02-18T01:35:47;17.77;;;12.80;;
10100;SDS011;5090;51.258;4.436;2023-02-18T01:38:15;18.47;;;13.20;;
10100;SDS011;5090;51.258;4.436;2023-02-18T01:40:46;17.13;;;12.37;;
10100;SDS011;5090;51.258;4.436;2023-02-18T01:43:13;18.60;;;11.20;;
10100;SDS011;5090;51.258;4.436;2023-02-18T01:45:48;19.17;;;12.70;;
10100;SDS011;5090;51.258;4.436;2023-02-18T01:48:17;16.83;;;11.33;;
10100;SDS011;5090;51.258;4.436;2023-02-18T01:50:45;18.10;;;13.03;;
10100;SDS011;5090;51.258;4.436;2023-02-18T01:53:13;16.20;;;11.30;;
10100;SDS011;5090;51.258;4.436;2023-02-18T01:55:41;19.07;;;11.67;;
10100;SDS011;5090;51.258;4.436;2023-02-18T01:58:10;17.83;;;11.43;;
10100;SDS011;5090;51.258;4.436;2023-02-18T02:00:38;18.83;;;11.40;;
10100;SDS011;5090;51.258;4.436;2023-02-18T02:03:06;17.50;;;11.80;;
10100;SDS011;5090;51.258;4.436;2023-02-18T02:05:34;16.17;;;10.83;;
10100;SDS011;5090;51.258;4.436;2023-02-18T02:08:02;17.07;;;10.97;;
10100;SDS011;5090;51.258;4.436;2023-02-18T02:13:14;16.53;;;11.37;;
10100;SDS011;5090;51.258;4.436;2023-02-18T02:15:48;19.63;;;11.00;;
10100;SDS011;5090;51.258;4.436;2023-02-18T02:18:23;18.93;;;12.13;;
10100;SDS011;5090;51.258;4.436;2023-02-18T02:20:59;13.87;;;10.27;;
10100;SDS011;5090;51.258;4.436;2023-02-18T02:24:37;17.07;;;10.70;;
10100;SDS011;5090;51.258;4.436;2023-02-18T02:26:29;16.30;;;11.63;;
10100;SDS011;5090;51.258;4.436;2023-02-18T02:32:18;19.57;;;10.77;;
10100;SDS011;5090;51.258;4.436;2023-02-18T02:37:01;14.27;;;8.77;;
10100;SDS011;5090;51.258;4.436;2023-02-18T02:39:33;12.37;;;8.23;;
10100;SDS011;5090;51.258;4.436;2023-02-18T02:42:12;15.30;;;8.80;;
10100;SDS011;5090;51.258;4.436;2023-02-18T02:44:38;14.57;;;8.37;;
10100;SDS011;5090;51.258;4.436;2023-02-18T02:47:07;12.13;;;8.30;;
10100;SDS011;5090;51.258;4.436;2023-02-18T02:49:41;15.73;;;8.73;;
10100;SDS011;5090;51.258;4.436;2023-02-18T02:52:11;12.23;;;8.47;;
10100;SDS011;5090;51.258;4.436;2023-02-18T02:54:37;13.67;;;8.20;;
10100;SDS011;5090;51.258;4.436;2023-02-18T02:57:08;14.13;;;7.17;;
10100;SDS011;5090;51.258;4.436;2023-02-18T02:59:35;10.13;;;7.10;;
10100;SDS011;5090;51.258;4.436;2023-02-18T03:02:15;10.57;;;6.70;;
10100;SDS011;5090;51.258;4.436;2023-02-18T03:04:48;11.63;;;6.80;;
10100;SDS011;5090;51.258;4.436;2023-02-18T03:07:18;8.40;;;6.27;;
10100;SDS011;5090;51.258;4.436;2023-02-18T03:09:46;9.10;;;5.93;;
10100;SDS011;5090;51.258;4.436;2023-02-18T03:12:15;7.53;;;5.43;;
10100;SDS011;5090;51.258;4.436;2023-02-18T03:14:43;8.13;;;5.87;;
10100;SDS011;5090;51.258;4.436;2023-02-18T03:17:13;7.67;;;5.80;;
10100;SDS011;5090;51.258;4.436;2023-02-18T03:19:41;10.93;;;5.53;;
10100;SDS011;5090;51.258;4.436;2023-02-18T03:22:40;8.07;;;5.00;;
10100;SDS011;5090;51.258;4.436;2023-02-18T03:24:51;9.57;;;5.10;;
10100;SDS011;5090;51.258;4.436;2023-02-18T03:27:20;7.53;;;4.90;;
10100;SDS011;5090;51.258;4.436;2023-02-18T03:29:48;8.50;;;5.13;;
10100;SDS011;5090;51.258;4.436;2023-02-18T03:32:16;8.47;;;5.43;;
10100;SDS011;5090;51.258;4.436;2023-02-18T03:34:45;7.00;;;4.77;;
10100;SDS011;5090;51.258;4.436;2023-02-18T03:37:12;6.60;;;4.77;;
10100;SDS011;5090;51.258;4.436;2023-02-18T03:39:41;7.37;;;4.13;;
10100;SDS011;5090;51.258;4.436;2023-02-18T03:42:09;5.87;;;4.20;;
10100;SDS011;5090;51.258;4.436;2023-02-18T03:44:37;5.23;;;3.83;;
10100;SDS011;5090;51.258;4.436;2023-02-18T03:47:05;4.87;;;3.50;;
10100;SDS011;5090;51.258;4.436;2023-02-18T03:49:33;6.63;;;3.43;;
10100;SDS011;5090;51.258;4.436;2023-02-18T03:52:02;3.80;;;3.23;;
10100;SDS011;5090;51.258;4.436;2023-02-18T03:54:30;6.13;;;3.80;;
10100;SDS011;5090;51.258;4.436;2023-02-18T03:56:58;4.57;;;3.30;;
10100;SDS011;5090;51.258;4.436;2023-02-18T03:59:26;4.40;;;3.00;;
10100;SDS011;5090;51.258;4.436;2023-02-18T04:01:54;5.93;;;3.23;;
10100;SDS011;5090;51.258;4.436;2023-02-18T04:04:23;3.13;;;2.63;;
10100;SDS011;5090;51.258;4.436;2023-02-18T04:06:51;5.10;;;3.00;;
10100;SDS011;5090;51.258;4.436;2023-02-18T04:09:19;6.67;;;3.10;;
10100;SDS011;5090;51.258;4.436;2023-02-18T04:11:47;3.97;;;3.07;;
10100;SDS011;5090;51.258;4.436;2023-02-18T04:14:15;4.90;;;3.10;;
10100;SDS011;5090;51.258;4.436;2023-02-18T04:16:44;5.33;;;3.20;;
10100;SDS011;5090;51.258;4.436;2023-02-18T04:19:12;3.77;;;2.87;;
10100;SDS011;5090;51.258;4.436;2023-02-18T04:21:40;4.10;;;3.50;;
10100;SDS011;5090;51.258;4.436;2023-02-18T04:24:08;4.63;;;3.50;;
10100;SDS011;5090;51.258;4.436;2023-02-18T04:26:36;3.77;;;3.37;;
10100;SDS011;5090;51.258;4.436;2023-02-18T04:29:05;4.13;;;2.80;;
10100;SDS011;5090;51.258;4.436;2023-02-18T04:31:33;4.43;;;3.17;;
10100;SDS011;5090;51.258;4.436;2023-02-18T04:34:01;3.87;;;3.30;;
10100;SDS011;5090;51.258;4.436;2023-02-18T04:36:29;5.80;;;3.30;;
10100;SDS011;5090;51.258;4.436;2023-02-18T04:38:57;5.93;;;4.20;;
10100;SDS011;5090;51.258;4.436;2023-02-18T04:41:26;7.30;;;4.50;;
10100;SDS011;5090;51.258;4.436;2023-02-18T04:43:54;6.47;;;4.50;;
10100;SDS011;5090;51.258;4.436;2023-02-18T04:46:22;8.63;;;4.70;;
10100;SDS011;5090;51.258;4.436;2023-02-18T04:48:50;7.33;;;5.20;;
10100;SDS011;5090;51.258;4.436;2023-02-18T04:51:18;8.67;;;4.93;;
10100;SDS011;5090;51.258;4.436;2023-02-18T04:53:46;6.43;;;4.90;;
10100;SDS011;5090;51.258;4.436;2023-02-18T04:56:15;6.03;;;4.57;;
10100;SDS011;5090;51.258;4.436;2023-02-18T04:58:43;5.60;;;4.73;;
10100;SDS011;5090;51.258;4.436;2023-02-18T05:01:11;8.27;;;4.83;;
10100;SDS011;5090;51.258;4.436;2023-02-18T05:03:39;6.10;;;4.53;;
10100;SDS011;5090;51.258;4.436;2023-02-18T05:06:08;7.10;;;4.70;;
10100;SDS011;5090;51.258;4.436;2023-02-18T05:08:36;5.80;;;4.33;;
10100;SDS011;5090;51.258;4.436;2023-02-18T05:11:05;8.13;;;5.07;;
10100;SDS011;5090;51.258;4.436;2023-02-18T05:13:32;6.83;;;4.90;;
10100;SDS011;5090;51.258;4.436;2023-02-18T05:16:00;7.00;;;5.00;;
10100;SDS011;5090;51.258;4.436;2023-02-18T05:18:29;6.97;;;4.50;;
10100;SDS011;5090;51.258;4.436;2023-02-18T05:20:57;8.77;;;5.17;;
10100;SDS011;5090;51.258;4.436;2023-02-18T05:23:25;7.10;;;4.57;;
10100;SDS011;5090;51.258;4.436;2023-02-18T05:25:53;7.57;;;4.30;;
10100;SDS011;5090;51.258;4.436;2023-02-18T05:28:21;9.63;;;4.23;;
10100;SDS011;5090;51.258;4.436;2023-02-18T05:30:50;5.30;;;3.53;;
10100;SDS011;5090;51.258;4.436;2023-02-18T05:33:18;4.43;;;3.27;;
10100;SDS011;5090;51.258;4.436;2023-02-18T05:35:47;7.73;;;3.70;;
10100;SDS011;5090;51.258;4.436;2023-02-18T05:38:14;4.47;;;4.00;;
10100;SDS011;5090;51.258;4.436;2023-02-18T05:40:42;4.73;;;3.93;;
10100;SDS011;5090;51.258;4.436;2023-02-18T05:43:11;4.87;;;4.00;;
10100;SDS011;5090;51.258;4.436;2023-02-18T05:45:39;6.17;;;4.10;;
10100;SDS011;5090;51.258;4.436;2023-02-18T05:48:07;7.27;;;4.00;;
10100;SDS011;5090;51.258;4.436;2023-02-18T05:50:35;6.37;;;4.30;;
10100;SDS011;5090;51.258;4.436;2023-02-18T05:53:04;9.40;;;4.67;;
10100;SDS011;5090;51.258;4.436;2023-02-18T05:55:32;7.23;;;4.47;;
10100;SDS011;5090;51.258;4.436;2023-02-18T05:58:00;7.30;;;4.90;;
10100;SDS011;5090;51.258;4.436;2023-02-18T06:00:28;7.23;;;5.00;;
10100;SDS011;5090;51.258;4.436;2023-02-18T06:02:57;8.83;;;4.60;;
10100;SDS011;5090;51.258;4.436;2023-02-18T06:05:25;6.83;;;4.70;;
10100;SDS011;5090;51.258;4.436;2023-02-18T06:07:53;10.73;;;5.00;;
10100;SDS011;5090;51.258;4.436;2023-02-18T06:10:21;8.03;;;4.60;;
10100;SDS011;5090;51.258;4.436;2023-02-18T06:12:49;7.17;;;5.33;;
10100;SDS011;5090;51.258;4.436;2023-02-18T06:15:18;8.90;;;5.33;;
10100;SDS011;5090;51.258;4.436;2023-02-18T06:17:46;16.63;;;5.57;;
10100;SDS011;5090;51.258;4.436;2023-02-18T06:20:17;9.30;;;5.00;;
10100;SDS011;5090;51.258;4.436;2023-02-18T06:22:45;15.17;;;5.03;;
10100;SDS011;5090;51.258;4.436;2023-02-18T06:25:13;12.43;;;4.00;;
10100;SDS011;5090;51.258;4.436;2023-02-18T06:27:42;10.23;;;3.63;;
10100;SDS011;5090;51.258;4.436;2023-02-18T06:30:10;13.63;;;3.63;;
10100;SDS011;5090;51.258;4.436;2023-02-18T06:32:38;7.67;;;3.20;;
10100;SDS011;5090;51.258;4.436;2023-02-18T06:35:06;14.43;;;3.13;;
10100;SDS011;5090;51.258;4.436;2023-02-18T06:37:34;14.97;;;2.90;;
10100;SDS011;5090;51.258;4.436;2023-02-18T06:40:03;17.17;;;2.70;;
10100;SDS011;5090;51.258;4.436;2023-02-18T06:42:31;13.43;;;2.80;;
10100;SDS011;5090;51.258;4.436;2023-02-18T06:45:00;12.97;;;2.27;;
10100;SDS011;5090;51.258;4.436;2023-02-18T06:47:28;11.03;;;2.63;;
10100;SDS011;5090;51.258;4.436;2023-02-18T06:49:56;14.67;;;2.90;;
10100;SDS011;5090;51.258;4.436;2023-02-18T06:52:24;8.73;;;2.13;;
10100;SDS011;5090;51.258;4.436;2023-02-18T06:54:53;16.60;;;2.93;;
10100;SDS011;5090;51.258;4.436;2023-02-18T06:57:21;10.33;;;1.47;;
10100;SDS011;5090;51.258;4.436;2023-02-18T06:59:49;11.70;;;2.17;;
10100;SDS011;5090;51.258;4.436;2023-02-18T07:02:17;13.43;;;2.17;;
10100;SDS011;5090;51.258;4.436;2023-02-18T07:04:45;11.20;;;2.83;;
10100;SDS011;5090;51.258;4.436;2023-02-18T07:07:14;14.40;;;2.33;;
10100;SDS011;5090;51.258;4.436;2023-02-18T07:09:42;21.47;;;3.30;;
10100;SDS011;5090;51.258;4.436;2023-02-18T07:12:10;10.80;;;2.50;;
10100;SDS011;5090;51.258;4.436;2023-02-18T07:14:38;9.43;;;2.50;;
10100;SDS011;5090;51.258;4.436;2023-02-18T07:17:07;9.20;;;2.30;;
10100;SDS011;5090;51.258;4.436;2023-02-18T07:19:35;11.03;;;2.30;;
10100;SDS011;5090;51.258;4.436;2023-02-18T07:22:03;16.20;;;3.37;;
10100;SDS011;5090;51.258;4.436;2023-02-18T07:24:32;13.30;;;2.63;;
10100;SDS011;5090;51.258;4.436;2023-02-18T07:27:00;11.77;;;2.17;;
10100;SDS011;5090;51.258;4.436;2023-02-18T07:29:28;15.77;;;2.67;;
10100;SDS011;5090;51.258;4.436;2023-02-18T07:31:56;11.40;;;3.23;;
10100;SDS011;5090;51.258;4.436;2023-02-18T07:34:25;10.40;;;2.23;;
10100;SDS011;5090;51.258;4.436;2023-02-18T07:36:53;7.00;;;2.37;;
10100;SDS011;5090;51.258;4.436;2023-02-18T07:39:21;9.37;;;2.53;;
10100;SDS011;5090;51.258;4.436;2023-02-18T07:41:49;17.57;;;3.47;;
10100;SDS011;5090;51.258;4.436;2023-02-18T07:44:22;10.47;;;2.37;;
10100;SDS011;5090;51.258;4.436;2023-02-18T07:46:50;10.10;;;2.10;;
10100;SDS011;5090;51.258;4.436;2023-02-18T07:49:18;9.47;;;2.33;;
10100;SDS011;5090;51.258;4.436;2023-02-18T07:51:47;12.40;;;2.80;;
10100;SDS011;5090;51.258;4.436;2023-02-18T07:54:15;10.80;;;2.83;;
10100;SDS011;5090;51.258;4.436;2023-02-18T07:56:43;13.20;;;2.30;;
10100;SDS011;5090;51.258;4.436;2023-02-18T07:59:12;15.00;;;3.13;;
10100;SDS011;5090;51.258;4.436;2023-02-18T08:01:40;10.07;;;2.60;;
10100;SDS011;5090;51.258;4.436;2023-02-18T08:04:08;9.90;;;2.83;;
10100;SDS011;5090;51.258;4.436;2023-02-18T08:06:37;9.40;;;2.17;;
10100;SDS011;5090;51.258;4.436;2023-02-18T08:09:04;10.20;;;2.47;;
10100;SDS011;5090;51.258;4.436;2023-02-18T08:11:33;10.97;;;2.37;;
10100;SDS011;5090;51.258;4.436;2023-02-18T08:14:02;6.93;;;2.40;;
10100;SDS011;5090;51.258;4.436;2023-02-18T08:16:30;14.80;;;2.70;;
10100;SDS011;5090;51.258;4.436;2023-02-18T08:18:58;9.77;;;2.07;;
10100;SDS011;5090;51.258;4.436;2023-02-18T08:21:26;13.47;;;2.70;;
10100;SDS011;5090;51.258;4.436;2023-02-18T08:23:56;5.67;;;2.00;;
10100;SDS011;5090;51.258;4.436;2023-02-18T08:26:23;12.23;;;2.20;;
10100;SDS011;5090;51.258;4.436;2023-02-18T08:28:51;9.97;;;2.33;;
10100;SDS011;5090;51.258;4.436;2023-02-18T08:31:21;5.97;;;1.97;;
10100;SDS011;5090;51.258;4.436;2023-02-18T08:33:48;7.03;;;1.70;;
10100;SDS011;5090;51.258;4.436;2023-02-18T08:36:16;8.83;;;1.77;;
10100;SDS011;5090;51.258;4.436;2023-02-18T08:38:44;7.67;;;1.80;;
10100;SDS011;5090;51.258;4.436;2023-02-18T08:41:12;11.17;;;2.00;;
10100;SDS011;5090;51.258;4.436;2023-02-18T08:43:41;11.43;;;1.60;;
10100;SDS011;5090;51.258;4.436;2023-02-18T08:46:10;7.37;;;1.50;;
10100;SDS011;5090;51.258;4.436;2023-02-18T08:48:38;7.20;;;1.57;;
10100;SDS011;5090;51.258;4.436;2023-02-18T08:51:11;9.77;;;2.07;;
10100;SDS011;5090;51.258;4.436;2023-02-18T08:53:38;9.13;;;1.90;;
10100;SDS011;5090;51.258;4.436;2023-02-18T08:56:07;10.40;;;1.60;;
10100;SDS011;5090;51.258;4.436;2023-02-18T08:58:35;15.07;;;2.27;;
10100;SDS011;5090;51.258;4.436;2023-02-18T09:01:04;11.60;;;2.63;;
10100;SDS011;5090;51.258;4.436;2023-02-18T09:03:32;12.20;;;1.67;;
10100;SDS011;5090;51.258;4.436;2023-02-18T09:06:00;8.33;;;1.43;;
10100;SDS011;5090;51.258;4.436;2023-02-18T09:08:28;7.43;;;2.27;;
10100;SDS011;5090;51.258;4.436;2023-02-18T09:10:57;10.17;;;1.70;;
10100;SDS011;5090;51.258;4.436;2023-02-18T09:13:25;9.17;;;1.60;;
10100;SDS011;5090;51.258;4.436;2023-02-18T09:15:55;7.50;;;1.70;;
10100;SDS011;5090;51.258;4.436;2023-02-18T09:18:22;5.97;;;1.60;;
10100;SDS011;5090;51.258;4.436;2023-02-18T09:20:50;6.27;;;1.40;;
10100;SDS011;5090;51.258;4.436;2023-02-18T09:23:19;7.90;;;1.40;;
10100;SDS011;5090;51.258;4.436;2023-02-18T09:25:47;12.77;;;1.93;;
10100;SDS011;5090;51.258;4.436;2023-02-18T09:28:15;8.17;;;1.50;;
10100;SDS011;5090;51.258;4.436;2023-02-18T09:30:43;6.83;;;1.57;;
10100;SDS011;5090;51.258;4.436;2023-02-18T09:33:12;8.10;;;1.57;;
10100;SDS011;5090;51.258;4.436;2023-02-18T09:35:40;8.83;;;1.53;;
10100;SDS011;5090;51.258;4.436;2023-02-18T09:38:13;10.20;;;1.70;;
10100;SDS011;5090;51.258;4.436;2023-02-18T09:40:45;4.30;;;1.57;;
10100;SDS011;5090;51.258;4.436;2023-02-18T09:43:18;8.57;;;1.50;;
10100;SDS011;5090;51.258;4.436;2023-02-18T09:45:45;6.07;;;1.63;;
10100;SDS011;5090;51.258;4.436;2023-02-18T09:48:13;7.00;;;2.20;;
10100;SDS011;5090;51.258;4.436;2023-02-18T09:50:41;6.33;;;1.87;;
10100;SDS011;5090;51.258;4.436;2023-02-18T09:53:10;8.23;;;1.60;;
10100;SDS011;5090;51.258;4.436;2023-02-18T09:55:38;5.30;;;1.63;;
10100;SDS011;5090;51.258;4.436;2023-02-18T09:58:11;7.83;;;1.80;;
10100;SDS011;5090;51.258;4.436;2023-02-18T10:00:37;8.60;;;2.30;;
10100;SDS011;5090;51.258;4.436;2023-02-18T10:03:05;7.07;;;1.60;;
10100;SDS011;5090;51.258;4.436;2023-02-18T10:05:33;10.27;;;2.23;;
10100;SDS011;5090;51.258;4.436;2023-02-18T10:08:05;7.97;;;1.93;;
10100;SDS011;5090;51.258;4.436;2023-02-18T10:10:36;14.90;;;2.10;;
10100;SDS011;5090;51.258;4.436;2023-02-18T10:13:03;6.13;;;2.00;;
10100;SDS011;5090;51.258;4.436;2023-02-18T10:15:31;9.67;;;1.90;;
10100;SDS011;5090;51.258;4.436;2023-02-18T10:17:59;9.23;;;1.97;;
10100;SDS011;5090;51.258;4.436;2023-02-18T10:20:28;12.80;;;2.27;;
10100;SDS011;5090;51.258;4.436;2023-02-18T10:22:56;5.20;;;1.67;;
10100;SDS011;5090;51.258;4.436;2023-02-18T10:25:24;10.13;;;2.07;;
10100;SDS011;5090;51.258;4.436;2023-02-18T10:27:52;10.27;;;2.40;;
10100;SDS011;5090;51.258;4.436;2023-02-18T10:30:36;8.67;;;2.10;;
10100;SDS011;5090;51.258;4.436;2023-02-18T10:33:10;10.40;;;2.30;;
10100;SDS011;5090;51.258;4.436;2023-02-18T10:35:35;8.60;;;2.93;;
10100;SDS011;5090;51.258;4.436;2023-02-18T10:38:11;7.40;;;1.83;;
10100;SDS011;5090;51.258;4.436;2023-02-18T10:41:51;10.57;;;2.90;;
10100;SDS011;5090;51.258;4.436;2023-02-18T10:44:06;9.47;;;2.23;;
10100;SDS011;5090;51.258;4.436;2023-02-18T10:46:52;10.93;;;2.60;;
10100;SDS011;5090;51.258;4.436;2023-02-18T10:49:03;8.43;;;2.47;;
10100;SDS011;5090;51.258;4.436;2023-02-18T10:51:30;9.10;;;2.60;;
10100;SDS011;5090;51.258;4.436;2023-02-18T10:53:57;10.10;;;2.90;;
10100;SDS011;5090;51.258;4.436;2023-02-18T10:56:34;9.37;;;3.50;;
10100;SDS011;5090;51.258;4.436;2023-02-18T10:59:10;14.13;;;3.20;;
10100;SDS011;5090;51.258;4.436;2023-02-18T11:01:40;12.97;;;3.47;;
10100;SDS011;5090;51.258;4.436;2023-02-18T11:04:14;9.37;;;3.03;;
10100;SDS011;5090;51.258;4.436;2023-02-18T11:06:41;11.97;;;3.40;;
10100;SDS011;5090;51.258;4.436;2023-02-18T11:09:19;8.07;;;3.30;;
10100;SDS011;5090;51.258;4.436;2023-02-18T11:11:37;11.20;;;3.70;;
10100;SDS011;5090;51.258;4.436;2023-02-18T11:14:06;12.13;;;3.97;;
10100;SDS011;5090;51.258;4.436;2023-02-18T11:16:36;9.87;;;3.77;;
10100;SDS011;5090;51.258;4.436;2023-02-18T11:19:03;11.57;;;4.47;;
10100;SDS011;5090;51.258;4.436;2023-02-18T11:21:34;11.90;;;4.80;;
10100;SDS011;5090;51.258;4.436;2023-02-18T11:24:14;10.80;;;3.93;;
10100;SDS011;5090;51.258;4.436;2023-02-18T11:26:42;12.00;;;4.57;;
10100;SDS011;5090;51.258;4.436;2023-02-18T11:29:16;14.33;;;4.97;;
10100;SDS011;5090;51.258;4.436;2023-02-18T11:31:43;15.13;;;6.07;;
10100;SDS011;5090;51.258;4.436;2023-02-18T11:34:13;15.80;;;5.13;;
10100;SDS011;5090;51.258;4.436;2023-02-18T11:36:40;14.50;;;4.80;;
10100;SDS011;5090;51.258;4.436;2023-02-18T11:39:16;12.77;;;4.90;;
10100;SDS011;5090;51.258;4.436;2023-02-18T11:41:43;13.03;;;5.33;;
10100;SDS011;5090;51.258;4.436;2023-02-18T11:47:00;12.47;;;5.13;;
10100;SDS011;5090;51.258;4.436;2023-02-18T11:49:28;9.93;;;4.40;;
10100;SDS011;5090;51.258;4.436;2023-02-18T11:52:02;10.43;;;4.33;;
10100;SDS011;5090;51.258;4.436;2023-02-18T11:54:25;13.13;;;4.40;;
10100;SDS011;5090;51.258;4.436;2023-02-18T11:56:55;14.50;;;5.20;;
10100;SDS011;5090;51.258;4.436;2023-02-18T11:59:21;15.07;;;4.73;;
10100;SDS011;5090;51.258;4.436;2023-02-18T12:01:51;16.53;;;5.20;;
10100;SDS011;5090;51.258;4.436;2023-02-18T12:04:20;10.67;;;4.73;;
10100;SDS011;5090;51.258;4.436;2023-02-18T12:06:51;16.83;;;4.07;;
10100;SDS011;5090;51.258;4.436;2023-02-18T12:09:19;12.83;;;4.90;;
10100;SDS011;5090;51.258;4.436;2023-02-18T12:11:48;15.43;;;4.73;;
10100;SDS011;5090;51.258;4.436;2023-02-18T12:14:17;15.67;;;4.00;;
10100;SDS011;5090;51.258;4.436;2023-02-18T12:16:48;14.20;;;4.03;;
10100;SDS011;5090;51.258;4.436;2023-02-18T12:19:19;13.40;;;4.20;;
10100;SDS011;5090;51.258;4.436;2023-02-18T12:24:24;10.47;;;3.30;;
10100;SDS011;5090;51.258;4.436;2023-02-18T12:27:06;12.37;;;3.97;;
10100;SDS011;5090;51.258;4.436;2023-02-18T12:29:38;9.10;;;3.47;;
10100;SDS011;5090;51.258;4.436;2023-02-18T12:32:09;15.50;;;4.23;;
10100;SDS011;5090;51.258;4.436;2023-02-18T12:37:30;11.37;;;5.07;;
10100;SDS011;5090;51.258;4.436;2023-02-18T12:39:57;12.47;;;3.70;;
10100;SDS011;5090;51.258;4.436;2023-02-18T12:42:29;11.27;;;4.00;;
10100;SDS011;5090;51.258;4.436;2023-02-18T12:47:45;13.03;;;4.30;;
10100;SDS011;5090;51.258;4.436;2023-02-18T12:53:01;12.37;;;6.20;;
10100;SDS011;5090;51.258;4.436;2023-02-18T12:55:31;19.23;;;7.07;;
10100;SDS011;5090;51.258;4.436;2023-02-18T12:58:03;15.13;;;6.87;;
10100;SDS011;5090;51.258;4.436;2023-02-18T13:03:10;13.57;;;6.63;;
10100;SDS011;5090;51.258;4.436;2023-02-18T13:08:30;13.67;;;6.40;;
10100;SDS011;5090;51.258;4.436;2023-02-18T13:11:00;16.50;;;6.20;;
10100;SDS011;5090;51.258;4.436;2023-02-18T13:13:30;15.33;;;6.43;;
10100;SDS011;5090;51.258;4.436;2023-02-18T13:18:30;14.73;;;5.80;;
10100;SDS011;5090;51.258;4.436;2023-02-18T13:20:58;11.93;;;5.47;;
10100;SDS011;5090;51.258;4.436;2023-02-18T13:23:28;12.17;;;5.20;;
10100;SDS011;5090;51.258;4.436;2023-02-18T13:25:56;11.50;;;5.17;;
10100;SDS011;5090;51.258;4.436;2023-02-18T13:28:26;15.27;;;5.17;;
10100;SDS011;5090;51.258;4.436;2023-02-18T13:33:28;11.17;;;4.73;;
10100;SDS011;5090;51.258;4.436;2023-02-18T13:36:04;8.50;;;4.83;;
10100;SDS011;5090;51.258;4.436;2023-02-18T13:41:19;10.60;;;4.33;;
10100;SDS011;5090;51.258;4.436;2023-02-18T13:43:47;13.47;;;6.20;;
10100;SDS011;5090;51.258;4.436;2023-02-18T13:46:16;11.40;;;5.50;;
10100;SDS011;5090;51.258;4.436;2023-02-18T13:48:46;12.30;;;5.70;;
10100;SDS011;5090;51.258;4.436;2023-02-18T13:51:14;12.53;;;6.30;;
10100;SDS011;5090;51.258;4.436;2023-02-18T13:53:42;9.77;;;5.53;;
10100;SDS011;5090;51.258;4.436;2023-02-18T13:56:18;14.03;;;5.90;;
10100;SDS011;5090;51.258;4.436;2023-02-18T13:58:41;14.43;;;5.83;;
10100;SDS011;5090;51.258;4.436;2023-02-18T14:01:13;18.70;;;6.67;;
10100;SDS011;5090;51.258;4.436;2023-02-18T14:06:26;12.87;;;5.40;;
10100;SDS011;5090;51.258;4.436;2023-02-18T14:09:02;14.27;;;5.50;;
10100;SDS011;5090;51.258;4.436;2023-02-18T14:11:33;15.20;;;6.97;;
10100;SDS011;5090;51.258;4.436;2023-02-18T14:19:24;12.93;;;5.40;;
10100;SDS011;5090;51.258;4.436;2023-02-18T14:21:38;13.40;;;4.83;;
10100;SDS011;5090;51.258;4.436;2023-02-18T14:24:05;10.33;;;5.10;;
10100;SDS011;5090;51.258;4.436;2023-02-18T14:26:34;11.57;;;4.20;;
10100;SDS011;5090;51.258;4.436;2023-02-18T14:29:03;13.90;;;4.73;;
10100;SDS011;5090;51.258;4.436;2023-02-18T14:31:34;9.77;;;3.90;;
10100;SDS011;5090;51.258;4.436;2023-02-18T14:34:10;10.40;;;4.20;;
10100;SDS011;5090;51.258;4.436;2023-02-18T14:36:39;10.60;;;4.23;;
10100;SDS011;5090;51.258;4.436;2023-02-18T14:44:35;8.07;;;4.60;;
10100;SDS011;5090;51.258;4.436;2023-02-18T14:49:37;7.50;;;4.37;;
10100;SDS011;5090;51.258;4.436;2023-02-18T14:52:06;14.70;;;5.27;;
10100;SDS011;5090;51.258;4.436;2023-02-18T14:54:36;11.57;;;4.43;;
10100;SDS011;5090;51.258;4.436;2023-02-18T14:57:18;12.00;;;4.70;;
10100;SDS011;5090;51.258;4.436;2023-02-18T14:59:56;11.33;;;4.33;;
10100;SDS011;5090;51.258;4.436;2023-02-18T15:02:34;14.27;;;4.00;;
10100;SDS011;5090;51.258;4.436;2023-02-18T15:07:57;9.13;;;3.87;;
10100;SDS011;5090;51.258;4.436;2023-02-18T15:10:36;9.97;;;3.90;;
10100;SDS011;5090;51.258;4.436;2023-02-18T15:13:05;10.83;;;4.00;;
10100;SDS011;5090;51.258;4.436;2023-02-18T15:15:33;7.60;;;3.90;;
10100;SDS011;5090;51.258;4.436;2023-02-18T15:18:02;13.70;;;4.20;;
10100;SDS011;5090;51.258;4.436;2023-02-18T15:20:43;10.20;;;3.87;;
10100;SDS011;5090;51.258;4.436;2023-02-18T15:23:14;12.97;;;4.03;;
10100;SDS011;5090;51.258;4.436;2023-02-18T15:25:51;12.10;;;4.13;;
10100;SDS011;5090;51.258;4.436;2023-02-18T15:28:21;11.93;;;4.30;;
10100;SDS011;5090;51.258;4.436;2023-02-18T15:30:48;8.47;;;3.77;;
10100;SDS011;5090;51.258;4.436;2023-02-18T15:33:17;9.80;;;4.20;;
10100;SDS011;5090;51.258;4.436;2023-02-18T15:35:44;15.30;;;4.60;;
10100;SDS011;5090;51.258;4.436;2023-02-18T15:38:14;13.57;;;4.70;;
10100;SDS011;5090;51.258;4.436;2023-02-18T15:40:41;14.73;;;4.43;;
10100;SDS011;5090;51.258;4.436;2023-02-18T15:43:11;11.93;;;4.63;;
10100;SDS011;5090;51.258;4.436;2023-02-18T15:45:38;10.50;;;4.47;;
10100;SDS011;5090;51.258;4.436;2023-02-18T15:48:06;12.43;;;4.90;;
10100;SDS011;5090;51.258;4.436;2023-02-18T15:50:35;17.30;;;4.97;;
10100;SDS011;5090;51.258;4.436;2023-02-18T15:53:07;16.23;;;4.83;;
10100;SDS011;5090;51.258;4.436;2023-02-18T15:55:36;12.73;;;3.93;;
10100;SDS011;5090;51.258;4.436;2023-02-18T15:58:04;9.13;;;3.83;;